createdAt,value
2022-12-17T00:03:24.300Z,26.65
2022-12-17T00:06:12.741Z,26.61
2022-12-17T00:09:01.639Z,26.64
2022-12-17T00:11:49.815Z,26.57
2022-12-17T00:14:37.685Z,26.54
2022-12-17T00:17:26.465Z,26.53
2022-12-17T00:20:03.949Z,26.55
2022-12-17T00:22:51.654Z,26.56
2022-12-17T00:25:40.942Z,26.57
2022-12-17T00:28:32.341Z,26.59
2022-12-17T00:31:07.003Z,26.52
2022-12-17T00:33:55.984Z,26.50
2022-12-17T00:36:43.968Z,26.46
2022-12-17T00:39:32.028Z,26.41
2022-12-17T00:42:19.956Z,26.40
2022-12-17T00:45:07.787Z,26.37
2022-12-17T00:48:00.761Z,26.46
2022-12-17T00:50:49.873Z,26.40
2022-12-17T00:53:38.304Z,26.41
2022-12-17T00:56:26.277Z,26.44
2022-12-17T00:59:13.816Z,26.42
2022-12-17T01:02:04.323Z,26.36
2022-12-17T01:04:57.915Z,26.39
2022-12-17T01:07:43.870Z,26.36
2022-12-17T01:10:32.321Z,26.37
2022-12-17T01:13:23.304Z,26.45
2022-12-17T01:16:14.810Z,26.40
2022-12-17T01:19:03.917Z,26.41
2022-12-17T01:21:51.981Z,26.34
2022-12-17T01:24:40.099Z,26.34
2022-12-17T01:27:27.947Z,26.34
2022-12-17T01:30:19.719Z,26.40
2022-12-17T01:33:23.328Z,26.40
2022-12-17T01:36:12.671Z,26.42
2022-12-17T01:39:18.606Z,26.39
2022-12-17T01:42:08.725Z,26.40
2022-12-17T01:45:16.584Z,26.30
2022-12-17T01:48:12.747Z,26.44
2022-12-17T01:51:12.401Z,26.47
2022-12-17T01:54:08.621Z,26.48
2022-12-17T01:57:01.588Z,26.46
2022-12-17T02:00:05.806Z,26.46
2022-12-17T02:02:55.366Z,26.45
2022-12-17T02:05:44.606Z,26.38
2022-12-17T02:08:41.551Z,26.41
2022-12-17T02:11:47.459Z,26.39
2022-12-17T02:14:52.657Z,26.39
2022-12-17T02:17:42.740Z,26.41
2022-12-17T02:20:48.115Z,26.41
2022-12-17T02:23:46.996Z,26.40
2022-12-17T02:26:41.132Z,26.37
2022-12-17T02:29:28.890Z,26.40
2022-12-17T02:32:15.904Z,26.40
2022-12-17T02:35:05.774Z,26.43
2022-12-17T02:37:53.251Z,26.45
2022-12-17T02:40:42.202Z,26.45
2022-12-17T02:43:39.529Z,26.46
2022-12-17T02:46:32.986Z,26.48
2022-12-17T02:49:21.351Z,26.51
2022-12-17T02:52:09.138Z,26.53
2022-12-17T02:54:56.483Z,26.56
2022-12-17T02:57:45.185Z,26.58
2022-12-17T03:00:34.652Z,26.61
2022-12-17T03:03:22.240Z,26.63
2022-12-17T03:06:09.340Z,26.65
2022-12-17T03:08:57.118Z,26.69
2022-12-17T03:11:48.885Z,26.73
2022-12-17T03:14:39.312Z,26.75
2022-12-17T03:17:27.185Z,26.80
2022-12-17T03:20:14.825Z,26.83
2022-12-17T03:23:03.268Z,26.85
2022-12-17T03:25:50.962Z,26.89
2022-12-17T03:28:38.596Z,26.98
2022-12-17T03:31:25.677Z,27.07
2022-12-17T03:34:13.383Z,27.12
2022-12-17T03:37:14.352Z,27.13
2022-12-17T03:40:04.904Z,27.12
2022-12-17T03:42:55.212Z,27.12
2022-12-17T03:45:43.281Z,27.11
2022-12-17T03:48:34.831Z,27.12
2022-12-17T03:51:22.549Z,27.11
2022-12-17T03:54:10.120Z,27.10
2022-12-17T03:56:57.879Z,27.07
2022-12-17T03:59:45.242Z,27.04
2022-12-17T04:02:33.978Z,27.04
2022-12-17T04:05:21.723Z,27.01
2022-12-17T04:08:09.417Z,26.99
2022-12-17T04:10:57.374Z,26.98
2022-12-17T04:13:45.978Z,26.95
2022-12-17T04:16:36.539Z,26.91
2022-12-17T04:19:24.105Z,26.91
2022-12-17T04:22:11.647Z,26.91
2022-12-17T04:24:59.016Z,26.91
2022-12-17T04:27:46.538Z,26.89
2022-12-17T04:30:31.368Z,26.85
2022-12-17T04:33:18.876Z,26.86
2022-12-17T04:36:06.745Z,26.88
2022-12-17T04:38:54.086Z,26.72
2022-12-17T04:41:44.309Z,26.84
2022-12-17T04:44:32.521Z,26.85
2022-12-17T04:47:20.774Z,26.83
2022-12-17T04:50:08.458Z,26.84
2022-12-17T04:52:51.909Z,26.83
2022-12-17T04:55:39.566Z,26.82
2022-12-17T04:58:27.163Z,26.83
2022-12-17T05:01:16.186Z,26.80
2022-12-17T05:04:09.107Z,26.79
2022-12-17T05:06:56.354Z,26.77
2022-12-17T05:09:46.171Z,26.76
2022-12-17T05:12:34.510Z,26.75
2022-12-17T05:15:22.333Z,26.72
2022-12-17T05:18:09.797Z,26.72
2022-12-17T05:20:57.400Z,26.71
2022-12-17T05:23:45.630Z,26.71
2022-12-17T05:26:44.481Z,26.70
2022-12-17T05:29:32.609Z,26.67
2022-12-17T05:32:21.144Z,26.68
2022-12-17T05:35:10.436Z,26.65
2022-12-17T05:37:57.756Z,26.65
2022-12-17T05:40:45.456Z,26.64
2022-12-17T05:43:33.871Z,26.63
2022-12-17T05:46:21.887Z,26.61
2022-12-17T05:49:11.899Z,26.59
2022-12-17T05:52:01.404Z,26.59
2022-12-17T05:54:49.458Z,26.57
2022-12-17T05:57:38.029Z,26.55
2022-12-17T06:00:26.848Z,26.59
2022-12-17T06:03:23.006Z,26.56
2022-12-17T06:06:14.919Z,26.54
2022-12-17T06:09:03.249Z,26.50
2022-12-17T06:11:51.358Z,26.51
2022-12-17T06:14:38.957Z,26.50
2022-12-17T06:17:26.091Z,26.50
2022-12-17T06:20:17.820Z,26.48
2022-12-17T06:23:05.075Z,26.48
2022-12-17T06:25:53.543Z,26.48
2022-12-17T06:28:41.479Z,26.45
2022-12-17T06:31:29.246Z,26.46
2022-12-17T06:34:17.416Z,26.43
2022-12-17T06:37:05.199Z,26.46
2022-12-17T06:39:55.798Z,26.42
2022-12-17T06:42:43.700Z,26.45
2022-12-17T06:45:32.040Z,26.42
2022-12-17T06:48:23.646Z,26.44
2022-12-17T06:51:14.794Z,26.41
2022-12-17T06:54:02.610Z,26.37
2022-12-17T06:56:50.573Z,26.40
2022-12-17T06:59:38.029Z,26.37
2022-12-17T07:02:27.254Z,26.36
2022-12-17T07:05:15.114Z,26.36
2022-12-17T07:07:58.920Z,26.35
2022-12-17T07:10:46.838Z,26.31
2022-12-17T07:13:34.966Z,26.33
2022-12-17T07:16:23.253Z,26.34
2022-12-17T07:19:10.641Z,26.33
2022-12-17T07:21:58.192Z,26.34
2022-12-17T07:24:45.658Z,26.33
2022-12-17T07:27:33.505Z,26.29
2022-12-17T07:30:20.948Z,26.29
2022-12-17T07:33:10.285Z,26.28
2022-12-17T07:35:58.074Z,26.26
2022-12-17T07:38:45.866Z,26.29
2022-12-17T07:41:33.972Z,26.27
2022-12-17T07:44:22.202Z,26.25
2022-12-17T07:47:09.863Z,26.25
2022-12-17T07:49:57.051Z,26.25
2022-12-17T07:52:44.546Z,26.26
2022-12-17T07:55:33.398Z,26.22
2022-12-17T07:58:26.315Z,26.22
2022-12-17T08:01:14.446Z,26.23
2022-12-17T08:04:02.456Z,26.24
2022-12-17T08:06:49.707Z,26.26
2022-12-17T08:09:38.330Z,26.26
2022-12-17T08:12:26.276Z,26.20
2022-12-17T08:15:13.977Z,26.22
2022-12-17T08:18:01.889Z,26.20
2022-12-17T08:20:49.818Z,26.21
2022-12-17T08:23:38.324Z,26.21
2022-12-17T08:26:26.624Z,26.22
2022-12-17T08:29:14.540Z,26.21
2022-12-17T08:32:02.177Z,26.20
2022-12-17T08:34:49.773Z,26.20
2022-12-17T08:37:41.163Z,26.21
2022-12-17T08:40:29.366Z,26.21
2022-12-17T08:43:17.653Z,26.23
2022-12-17T08:46:08.479Z,26.21
2022-12-17T08:48:56.012Z,26.20
2022-12-17T08:51:43.549Z,26.21
2022-12-17T08:54:32.174Z,26.21
2022-12-17T08:57:30.650Z,26.21
2022-12-17T09:00:08.948Z,26.24
2022-12-17T09:02:57.015Z,26.33
2022-12-17T09:05:44.874Z,26.49
2022-12-17T09:08:33.462Z,26.52
2022-12-17T09:11:21.519Z,26.57
2022-12-17T09:14:09.113Z,26.62
2022-12-17T09:16:56.546Z,26.65
2022-12-17T09:19:44.292Z,26.66
2022-12-17T09:22:32.171Z,26.70
2022-12-17T09:25:20.658Z,26.75
2022-12-17T09:28:08.178Z,26.75
2022-12-17T09:30:56.181Z,26.77
2022-12-17T09:33:40.304Z,26.87
2022-12-17T09:36:29.334Z,26.91
2022-12-17T09:39:17.227Z,26.89
2022-12-17T09:42:25.924Z,26.87
2022-12-17T09:45:19.285Z,26.84
2022-12-17T09:48:14.921Z,26.83
2022-12-17T09:51:03.704Z,26.82
2022-12-17T09:53:57.285Z,26.76
2022-12-17T09:56:45.324Z,26.63
2022-12-17T09:59:41.852Z,26.63
2022-12-17T10:02:35.137Z,26.69
2022-12-17T10:05:23.623Z,26.63
2022-12-17T10:08:11.864Z,26.61
2022-12-17T10:11:02.199Z,26.59
2022-12-17T10:13:50.196Z,26.59
2022-12-17T10:16:52.284Z,26.66
2022-12-17T10:19:54.465Z,26.72
2022-12-17T10:22:42.902Z,26.73
2022-12-17T10:25:41.559Z,26.77
2022-12-17T10:28:27.434Z,26.80
2022-12-17T10:31:14.933Z,26.81
2022-12-17T10:34:03.405Z,26.81
2022-12-17T10:36:51.157Z,26.83
2022-12-17T10:39:40.946Z,26.92
2022-12-17T10:42:43.253Z,26.89
2022-12-17T10:45:41.826Z,26.89
2022-12-17T10:48:46.456Z,26.85
2022-12-17T10:51:42.714Z,26.84
2022-12-17T10:54:46.942Z,26.82
2022-12-17T10:57:52.176Z,26.76
2022-12-17T11:04:00.747Z,26.70
2022-12-17T11:06:49.283Z,26.69
2022-12-17T11:09:46.497Z,26.65
2022-12-17T11:12:34.424Z,26.72
2022-12-17T11:15:24.904Z,26.76
2022-12-17T11:18:13.855Z,26.76
2022-12-17T11:21:08.321Z,26.75
2022-12-17T11:23:56.907Z,26.73
2022-12-17T11:26:44.548Z,26.79
2022-12-17T11:29:32.982Z,26.84
2022-12-17T11:32:25.657Z,26.88
2022-12-17T11:35:25.146Z,26.88
2022-12-17T11:38:30.427Z,26.87
2022-12-17T11:41:37.242Z,26.90
2022-12-17T11:44:39.751Z,26.94
2022-12-17T11:47:44.613Z,26.97
2022-12-17T11:51:06.240Z,26.98
2022-12-17T11:54:02.356Z,26.96
2022-12-17T11:57:01.316Z,26.97
2022-12-17T11:59:55.093Z,26.98
2022-12-17T12:03:13.485Z,26.99
2022-12-17T12:06:18.255Z,26.97
2022-12-17T12:09:30.354Z,26.95
2022-12-17T12:12:35.199Z,26.96
2022-12-17T12:15:43.562Z,26.94
2022-12-17T12:18:34.766Z,26.94
2022-12-17T12:21:58.620Z,26.90
2022-12-17T12:24:51.245Z,26.89
2022-12-17T12:27:59.327Z,26.85
2022-12-17T12:30:49.654Z,26.83
2022-12-17T12:34:06.588Z,26.79
2022-12-17T12:36:54.966Z,26.77
2022-12-17T12:39:48.103Z,26.74
2022-12-17T12:42:38.989Z,26.74
2022-12-17T12:45:41.063Z,26.71
2022-12-17T12:48:51.890Z,26.66
2022-12-17T12:51:47.542Z,26.65
2022-12-17T12:55:07.814Z,26.65
2022-12-17T12:57:56.248Z,26.63
2022-12-17T13:00:55.209Z,26.59
2022-12-17T13:03:53.546Z,26.53
2022-12-17T13:06:54.401Z,26.49
2022-12-17T13:09:41.250Z,26.49
2022-12-17T13:12:14.056Z,26.46
2022-12-17T13:14:58.834Z,26.46
2022-12-17T13:17:40.279Z,26.40
2022-12-17T13:20:31.350Z,26.35
2022-12-17T13:23:15.945Z,26.30
2022-12-17T13:25:46.916Z,26.25
2022-12-17T13:28:31.673Z,26.22
2022-12-17T13:31:06.024Z,26.19
2022-12-17T13:33:57.906Z,26.16
2022-12-17T13:36:33.386Z,26.12
2022-12-17T13:39:12.112Z,26.12
2022-12-17T13:41:42.532Z,26.14
2022-12-17T13:44:20.507Z,26.14
2022-12-17T13:46:52.485Z,26.10
2022-12-17T13:49:32.903Z,26.09
2022-12-17T13:52:11.755Z,26.07
2022-12-17T13:54:39.850Z,26.03
2022-12-17T13:57:11.528Z,26.03
2022-12-17T13:59:41.834Z,25.98
2022-12-17T14:02:32.845Z,25.97
2022-12-17T14:05:07.980Z,25.96
2022-12-17T14:07:36.428Z,25.93
2022-12-17T14:10:06.788Z,25.92
2022-12-17T14:12:37.046Z,25.89
2022-12-17T14:15:09.364Z,25.84
2022-12-17T14:17:40.838Z,25.77
2022-12-17T14:20:22.078Z,25.76
2022-12-17T14:23:00.327Z,25.77
2022-12-17T14:25:32.642Z,25.75
2022-12-17T14:28:06.419Z,25.76
2022-12-17T14:31:24.375Z,25.76
2022-12-17T14:33:33.108Z,25.73
2022-12-17T14:36:05.232Z,25.71
2022-12-17T14:38:48.384Z,25.70
2022-12-17T14:41:33.614Z,25.68
2022-12-17T14:44:04.487Z,25.61
2022-12-17T14:46:38.264Z,25.60
2022-12-17T14:49:11.108Z,25.62
2022-12-17T14:51:45.264Z,25.61
2022-12-17T14:54:30.945Z,25.58
2022-12-17T14:57:01.777Z,25.59
2022-12-17T14:59:39.350Z,25.58
2022-12-17T15:02:18.269Z,25.56
2022-12-17T15:04:48.924Z,25.44
2022-12-17T15:07:21.738Z,24.36
2022-12-17T15:09:53.426Z,24.88
2022-12-17T15:12:26.844Z,25.17
2022-12-17T15:14:57.094Z,24.99
2022-12-17T15:17:27.161Z,25.29
2022-12-17T15:19:57.102Z,25.35
2022-12-17T15:22:27.230Z,25.38
2022-12-17T15:24:57.204Z,25.40
2022-12-17T15:27:38.062Z,25.21
2022-12-17T15:30:15.709Z,25.21
2022-12-17T15:32:50.814Z,25.24
2022-12-17T15:35:21.182Z,25.27
2022-12-17T15:38:04.243Z,25.30
2022-12-17T15:40:34.340Z,25.26
2022-12-17T15:43:13.136Z,25.24
2022-12-17T15:45:49.700Z,25.09
2022-12-17T15:48:21.417Z,25.13
2022-12-17T15:50:52.066Z,25.11
2022-12-17T15:53:23.410Z,25.07
2022-12-17T15:55:53.964Z,25.11
2022-12-17T15:58:24.039Z,25.12
2022-12-17T16:00:54.525Z,25.13
2022-12-17T16:03:25.162Z,25.11
2022-12-17T16:05:55.672Z,25.14
2022-12-17T16:08:26.202Z,25.11
2022-12-17T16:10:56.596Z,25.10
2022-12-17T16:13:27.824Z,24.97
2022-12-17T16:16:04.050Z,24.97
2022-12-17T16:18:33.213Z,25.06
2022-12-17T16:21:09.621Z,25.10
2022-12-17T16:23:40.011Z,25.12
2022-12-17T16:26:10.781Z,25.10
2022-12-17T16:28:41.554Z,25.10
2022-12-17T16:31:13.421Z,25.10
2022-12-17T16:33:44.657Z,25.09
2022-12-17T16:36:17.479Z,25.08
2022-12-17T16:38:50.359Z,25.06
2022-12-17T16:41:20.831Z,25.07
2022-12-17T16:43:50.928Z,24.94
2022-12-17T16:46:26.610Z,25.04
2022-12-17T16:48:57.055Z,25.12
2022-12-17T16:51:29.287Z,25.16
2022-12-17T16:54:00.093Z,25.21
2022-12-17T16:56:32.805Z,25.24
2022-12-17T16:59:04.073Z,25.26
2022-12-17T17:01:34.789Z,25.27
2022-12-17T17:04:05.744Z,25.28
2022-12-17T17:06:37.305Z,25.28
2022-12-17T17:09:07.908Z,25.12
2022-12-17T17:11:37.857Z,25.12
2022-12-17T17:14:07.954Z,25.33
2022-12-17T17:16:38.249Z,25.35
2022-12-17T17:19:09.052Z,25.35
2022-12-17T17:21:41.001Z,25.36
2022-12-17T17:24:20.861Z,25.40
2022-12-17T17:26:49.292Z,25.42
2022-12-17T17:29:23.019Z,25.43
2022-12-17T17:32:09.837Z,25.45
2022-12-17T17:34:25.954Z,25.46
2022-12-17T17:36:56.043Z,25.41
2022-12-17T17:39:26.912Z,25.41
2022-12-17T17:41:57.259Z,25.51
2022-12-17T17:44:27.064Z,25.51
2022-12-17T17:46:57.522Z,25.53
2022-12-17T17:49:29.843Z,25.54
2022-12-17T17:52:15.641Z,25.55
2022-12-17T17:54:34.918Z,25.56
2022-12-17T17:57:05.020Z,25.57
2022-12-17T17:59:35.032Z,25.57
2022-12-17T18:02:06.782Z,25.62
2022-12-17T18:04:37.066Z,25.62
2022-12-17T18:09:39.241Z,25.65
2022-12-17T18:12:27.149Z,25.70
2022-12-17T18:15:13.579Z,25.68
2022-12-17T18:17:32.643Z,25.64
2022-12-17T18:20:02.907Z,25.60
2022-12-17T18:22:32.905Z,25.62
2022-12-17T18:25:03.290Z,25.64
2022-12-17T18:27:34.045Z,25.65
2022-12-17T18:30:04.240Z,25.62
2022-12-17T18:32:37.024Z,25.60
2022-12-17T18:35:07.999Z,25.55
2022-12-17T18:37:38.635Z,25.61
2022-12-17T18:40:10.035Z,25.60
2022-12-17T18:42:57.831Z,25.61
2022-12-17T18:45:28.234Z,25.52
2022-12-17T18:47:58.459Z,25.46
2022-12-17T18:50:28.586Z,25.49
2022-12-17T18:52:58.812Z,25.54
2022-12-17T18:55:29.446Z,25.52
2022-12-17T18:57:59.686Z,25.56
2022-12-17T19:00:30.124Z,25.57
2022-12-17T19:03:00.398Z,25.56
2022-12-17T19:05:30.808Z,25.61
2022-12-17T19:08:01.217Z,25.58
2022-12-17T19:10:31.422Z,25.54
2022-12-17T19:13:01.517Z,25.59
2022-12-17T19:15:34.688Z,25.56
2022-12-17T19:18:08.310Z,25.56
2022-12-17T19:20:38.356Z,25.46
2022-12-17T19:23:08.726Z,25.40
2022-12-17T19:25:39.163Z,25.44
2022-12-17T19:28:09.190Z,25.53
2022-12-17T19:30:39.366Z,25.58
2022-12-17T19:33:09.574Z,25.60
2022-12-17T19:35:39.965Z,25.55
2022-12-17T19:38:09.996Z,25.61
2022-12-17T19:40:40.545Z,25.60
2022-12-17T19:43:10.675Z,25.63
2022-12-17T19:45:42.328Z,25.62
2022-12-17T19:48:13.786Z,25.63
2022-12-17T19:50:44.078Z,25.67
2022-12-17T19:53:14.650Z,25.68
2022-12-17T19:55:45.690Z,25.66
2022-12-17T19:58:19.437Z,25.67
2022-12-17T20:00:49.761Z,25.68
2022-12-17T20:03:20.159Z,25.71
2022-12-17T20:05:50.479Z,25.70
2022-12-17T20:08:22.546Z,25.69
2022-12-17T20:10:52.787Z,25.74
2022-12-17T20:13:23.106Z,25.72
2022-12-17T20:16:07.075Z,25.70
2022-12-17T20:18:36.968Z,25.70
2022-12-17T20:21:07.968Z,25.75
2022-12-17T20:23:39.759Z,25.76
2022-12-17T20:26:11.415Z,25.78
2022-12-17T20:28:44.227Z,25.80
2022-12-17T20:31:15.653Z,25.81
2022-12-17T20:33:46.618Z,25.85
2022-12-17T20:36:18.809Z,25.84
2022-12-17T20:38:50.030Z,25.83
2022-12-17T20:41:22.912Z,25.86
2022-12-17T20:43:53.456Z,25.90
2022-12-17T20:46:23.701Z,25.89
2022-12-17T20:48:54.439Z,25.90
2022-12-17T20:51:29.941Z,25.88
2022-12-17T20:53:59.067Z,25.81
2022-12-17T20:56:31.425Z,25.83
2022-12-17T20:59:06.622Z,25.79
2022-12-17T21:01:37.947Z,25.81
2022-12-17T21:04:08.683Z,25.80
2022-12-17T21:06:41.195Z,25.77
2022-12-17T21:09:12.392Z,25.78
2022-12-17T21:11:48.876Z,25.80
2022-12-17T21:14:21.433Z,25.82
2022-12-17T21:16:52.141Z,25.83
2022-12-17T21:19:23.203Z,25.84
2022-12-17T21:21:53.540Z,25.84
2022-12-17T21:24:23.965Z,25.86
2022-12-17T21:26:54.197Z,25.89
2022-12-17T21:29:25.870Z,25.90
2022-12-17T21:31:57.328Z,25.92
2022-12-17T21:34:28.887Z,25.92
2022-12-17T21:36:59.185Z,25.95
2022-12-17T21:39:30.873Z,25.95
2022-12-17T21:42:18.347Z,25.97
2022-12-17T21:44:50.426Z,25.99
2022-12-17T21:47:22.014Z,26.00
2022-12-17T21:49:54.389Z,26.01
2022-12-17T21:52:24.403Z,26.03
2022-12-17T21:54:54.534Z,26.03
2022-12-17T21:57:26.290Z,26.05
2022-12-17T21:59:57.847Z,26.05
2022-12-17T22:02:28.192Z,26.06
2022-12-17T22:04:58.480Z,26.08
2022-12-17T22:07:35.821Z,26.10
2022-12-17T22:10:29.231Z,26.11
2022-12-17T22:12:57.424Z,26.11
2022-12-17T22:15:32.996Z,26.11
2022-12-17T22:18:00.968Z,26.10
2022-12-17T22:20:31.446Z,26.12
2022-12-17T22:23:01.909Z,26.12
2022-12-17T22:25:33.787Z,26.11
2022-12-17T22:28:04.148Z,26.11
2022-12-17T22:30:52.089Z,26.11
2022-12-17T22:33:48.876Z,26.13
2022-12-17T22:38:09.499Z,26.10
2022-12-17T22:42:59.134Z,26.10
2022-12-17T22:44:43.118Z,26.07
2022-12-17T22:44:49.641Z,26.08
2022-12-17T22:46:20.347Z,26.11
2022-12-17T22:48:50.698Z,26.08
2022-12-17T22:51:40.869Z,26.07
2022-12-17T22:53:55.107Z,26.04
2022-12-17T22:56:38.681Z,26.04
2022-12-17T22:59:00.353Z,26.03
2022-12-17T23:01:30.378Z,26.05
2022-12-17T23:04:02.734Z,26.05
2022-12-17T23:06:33.469Z,26.07
2022-12-17T23:09:07.236Z,26.07
2022-12-17T23:11:37.607Z,26.10
2022-12-17T23:14:09.156Z,26.06
2022-12-17T23:16:43.440Z,26.06
2022-12-17T23:19:13.748Z,26.10
2022-12-17T23:21:45.861Z,26.05
2022-12-17T23:24:17.133Z,26.07
2022-12-17T23:26:48.712Z,26.01
2022-12-17T23:29:19.967Z,25.96
2022-12-17T23:31:50.934Z,25.93
2022-12-17T23:34:21.206Z,25.88
2022-12-17T23:36:51.533Z,25.81
2022-12-17T23:39:21.757Z,25.77
2022-12-17T23:41:52.043Z,25.75
2022-12-17T23:44:22.057Z,25.69
2022-12-17T23:46:52.274Z,25.66
2022-12-17T23:49:22.449Z,25.69
2022-12-17T23:51:53.994Z,25.66
2022-12-17T23:54:24.122Z,25.62
2022-12-17T23:56:54.342Z,25.58
2022-12-17T23:59:25.906Z,25.52
